Time;durP1;ratioP1;P1;durP2;ratioP2;P2;SDS_P1;SDS_P2;PMS_P1;PMS_P2;Temp;Humidity;BMP_temperature;BMP_pressure;BME280_temperature;BME280_humidity;BME280_pressure;Samples;Min_cycle;Max_cycle;Signal;HPM_P1;HPM_P2
2022/12/16 00:01:38;;;;;;;7.63;2.95;;;-7.60;99.90;;;;;;5085234;28;20047;-67
2022/12/16 00:04:03;;;;;;;8.27;3.60;;;-7.60;99.90;;;;;;5102145;28;20052;-66
2022/12/16 00:06:32;;;;;;;10.38;3.47;;;-7.60;99.90;;;;;;5088826;28;20472;-67
2022/12/16 00:08:59;;;;;;;12.10;4.13;;;-7.60;99.90;;;;;;5095399;28;20047;-66
2022/12/16 00:11:25;;;;;;;9.98;4.03;;;-7.60;99.90;;;;;;5092430;28;20089;-67
2022/12/16 00:13:51;;;;;;;9.55;2.97;;;-7.60;99.90;;;;;;5107279;28;20448;-66
2022/12/16 00:16:21;;;;;;;10.85;3.67;;;-7.70;99.90;;;;;;5105240;28;20038;-67
2022/12/16 00:18:48;;;;;;;11.32;3.63;;;-7.70;99.90;;;;;;5085167;28;20031;-65
2022/12/16 00:21:14;;;;;;;11.40;3.70;;;-7.70;99.90;;;;;;5080827;28;20115;-66
2022/12/16 00:23:43;;;;;;;8.10;3.30;;;-7.80;99.90;;;;;;5090007;28;20040;-66
2022/12/16 00:26:10;;;;;;;7.07;2.95;;;-7.80;99.90;;;;;;5086029;28;20070;-66
2022/12/16 00:28:37;;;;;;;9.18;3.60;;;-7.80;99.90;;;;;;5088812;28;20039;-66
2022/12/16 00:31:03;;;;;;;11.45;4.57;;;-7.80;99.90;;;;;;5083642;28;20059;-66
2022/12/16 00:33:29;;;;;;;11.02;3.80;;;-7.80;99.90;;;;;;5087165;28;20105;-66
2022/12/16 00:35:58;;;;;;;12.80;6.18;;;-7.80;99.90;;;;;;5079852;28;20032;-67
2022/12/16 00:38:25;;;;;;;11.18;4.45;;;-7.80;99.90;;;;;;5085835;28;20035;-67
2022/12/16 00:40:51;;;;;;;21.58;6.45;;;-7.80;99.90;;;;;;5084497;28;20047;-67
2022/12/16 00:43:18;;;;;;;18.80;7.13;;;-7.80;99.90;;;;;;5084040;28;20036;-66
2022/12/16 00:45:45;;;;;;;19.17;9.45;;;-7.70;99.90;;;;;;5084145;28;20084;-66
2022/12/16 00:48:10;;;;;;;17.58;8.32;;;-7.80;99.90;;;;;;5076512;28;20067;-66
2022/12/16 00:50:36;;;;;;;14.07;5.43;;;-7.80;99.90;;;;;;5084512;28;20076;-66
2022/12/16 00:53:03;;;;;;;16.77;5.55;;;-7.80;99.90;;;;;;5093644;28;20055;-66
2022/12/16 00:55:28;;;;;;;15.27;4.72;;;-7.90;99.90;;;;;;5089374;28;20041;-66
2022/12/16 00:57:54;;;;;;;17.75;6.65;;;-8.00;99.90;;;;;;5094144;28;20523;-66
2022/12/16 01:00:21;;;;;;;19.00;6.30;;;-8.00;99.90;;;;;;5093785;28;20068;-66
2022/12/16 01:02:48;;;;;;;17.77;7.10;;;-8.00;99.90;;;;;;5089801;28;20032;-66
2022/12/16 01:05:16;;;;;;;23.55;9.32;;;-8.00;99.90;;;;;;5077632;28;20089;-68
2022/12/16 01:07:42;;;;;;;26.27;9.85;;;-8.00;99.90;;;;;;5083692;28;20412;-67
2022/12/16 01:10:09;;;;;;;20.20;8.85;;;-8.00;99.90;;;;;;5080053;28;20032;-66
2022/12/16 01:12:36;;;;;;;17.42;6.50;;;-8.00;99.90;;;;;;5077981;28;20266;-65
2022/12/16 01:15:04;;;;;;;24.00;8.50;;;-8.00;99.90;;;;;;5077983;28;20073;-66
2022/12/16 01:17:30;;;;;;;18.35;8.73;;;-8.00;99.90;;;;;;5080917;28;20055;-65
2022/12/16 01:19:55;;;;;;;11.43;5.10;;;-7.90;99.90;;;;;;5082845;28;20040;-67
2022/12/16 01:22:21;;;;;;;12.23;5.05;;;-8.00;99.90;;;;;;5085661;28;20062;-68
2022/12/16 01:24:47;;;;;;;8.35;4.10;;;-8.00;99.90;;;;;;5082028;28;20032;-68
2022/12/16 01:27:14;;;;;;;11.02;4.88;;;-7.90;99.90;;;;;;5075309;28;20044;-67
2022/12/16 01:29:40;;;;;;;14.15;4.22;;;-8.00;99.90;;;;;;5081958;28;20060;-67
2022/12/16 01:32:06;;;;;;;11.85;4.22;;;-7.90;99.90;;;;;;5075392;28;20411;-67
2022/12/16 01:34:32;;;;;;;8.18;3.75;;;-7.90;99.90;;;;;;5077328;28;20044;-66
2022/12/16 01:36:58;;;;;;;7.70;3.65;;;-7.90;99.90;;;;;;5084653;28;20034;-66
2022/12/16 01:39:26;;;;;;;7.95;3.88;;;-7.90;99.90;;;;;;5088405;28;20051;-66
2022/12/16 01:41:51;;;;;;;9.60;2.80;;;-8.00;99.90;;;;;;5084314;28;20051;-66
2022/12/16 01:44:20;;;;;;;10.13;3.30;;;-8.00;99.90;;;;;;5086829;28;20036;-67
2022/12/16 01:46:52;;;;;;;9.38;3.03;;;-8.00;99.90;;;;;;5074438;28;20422;-67
2022/12/16 01:49:29;;;;;;;4.88;2.63;;;-8.00;99.90;;;;;;5091291;28;20127;-66
2022/12/16 01:52:00;;;;;;;6.38;2.90;;;-8.10;99.90;;;;;;5082472;28;20040;-66
2022/12/16 01:54:38;;;;;;;11.98;3.35;;;-8.00;99.90;;;;;;5080153;28;20043;-66
2022/12/16 01:57:10;;;;;;;8.35;2.20;;;-8.10;99.90;;;;;;5082655;28;20032;-66
2022/12/16 01:59:39;;;;;;;13.00;2.70;;;-8.10;99.90;;;;;;5087816;28;20052;-65
2022/12/16 02:02:05;;;;;;;7.82;4.25;;;-8.10;99.90;;;;;;5071830;28;20044;-66
2022/12/16 02:04:31;;;;;;;7.63;2.72;;;-8.10;99.90;;;;;;5082520;28;20036;-65
2022/12/16 02:06:57;;;;;;;5.60;2.58;;;-8.10;99.90;;;;;;5080934;28;20036;-67
2022/12/16 02:09:23;;;;;;;11.05;3.42;;;-8.10;99.90;;;;;;5080842;28;20047;-66
2022/12/16 02:12:03;;;;;;;7.05;2.45;;;-8.00;99.90;;;;;;5080458;28;20067;-66
2022/12/16 02:14:59;;;;;;;10.57;2.72;;;-8.00;99.90;;;;;;5082914;28;20074;-67
2022/12/16 02:17:50;;;;;;;4.88;1.92;;;-8.00;99.90;;;;;;5077438;28;20059;-66
2022/12/16 02:20:32;;;;;;;5.05;1.98;;;-8.10;99.90;;;;;;5080913;28;20040;-66
2022/12/16 02:23:15;;;;;;;3.22;2.03;;;-8.10;99.90;;;;;;5088182;28;20119;-66
2022/12/16 02:25:53;;;;;;;5.85;1.80;;;-8.10;99.90;;;;;;5082496;28;20495;-66
2022/12/16 02:28:43;;;;;;;3.65;1.40;;;-8.20;99.90;;;;;;5078930;28;20040;-65
2022/12/16 02:31:38;;;;;;;5.38;1.70;;;-8.20;99.90;;;;;;5071651;28;20063;-65
2022/12/16 02:34:21;;;;;;;9.32;1.80;;;-8.20;99.90;;;;;;5077280;28;20050;-65
2022/12/16 02:37:03;;;;;;;3.13;1.38;;;-8.20;99.90;;;;;;5075169;28;20059;-65
2022/12/16 02:39:38;;;;;;;5.70;1.75;;;-8.20;99.90;;;;;;5085227;28;20124;-66
2022/12/16 02:42:18;;;;;;;5.78;1.45;;;-8.20;99.90;;;;;;5077128;28;20575;-65
2022/12/16 02:45:05;;;;;;;4.05;1.40;;;-8.20;99.90;;;;;;5083147;28;20127;-66
2022/12/16 02:47:31;;;;;;;6.10;1.52;;;-8.30;99.90;;;;;;5084173;28;20048;-65
2022/12/16 02:49:57;;;;;;;3.97;1.20;;;-8.30;99.90;;;;;;5083310;28;20048;-67
2022/12/16 02:52:27;;;;;;;3.80;1.50;;;-8.40;99.90;;;;;;5081419;28;20411;-67
2022/12/16 02:55:00;;;;;;;3.35;1.13;;;-8.40;99.90;;;;;;5083965;28;20373;-68
2022/12/16 02:57:38;;;;;;;3.15;1.25;;;-8.30;99.90;;;;;;5076954;28;20686;-67
2022/12/16 03:00:14;;;;;;;4.03;1.05;;;-8.30;99.90;;;;;;5079564;28;20032;-67
2022/12/16 03:02:52;;;;;;;1.50;0.80;;;-8.20;99.90;;;;;;5073936;28;20122;-67
2022/12/16 03:05:31;;;;;;;3.00;0.80;;;-8.30;99.90;;;;;;5083019;28;20035;-66
2022/12/16 03:08:01;;;;;;;6.28;1.13;;;-8.40;99.90;;;;;;5091006;28;20071;-67
2022/12/16 03:10:33;;;;;;;2.70;0.90;;;-8.40;99.90;;;;;;5088905;28;20446;-66
2022/12/16 03:13:00;;;;;;;3.20;0.80;;;-8.40;99.90;;;;;;5087784;28;20043;-66
2022/12/16 03:15:29;;;;;;;6.18;1.17;;;-8.40;99.90;;;;;;5081331;28;20079;-66
2022/12/16 03:17:56;;;;;;;7.95;1.20;;;-8.40;99.90;;;;;;5084495;28;20032;-65
2022/12/16 03:20:36;;;;;;;4.10;1.08;;;-8.30;99.90;;;;;;5083392;28;20044;-66
2022/12/16 03:23:07;;;;;;;4.70;1.27;;;-8.30;99.90;;;;;;5085885;28;20558;-65
2022/12/16 03:25:36;;;;;;;4.47;1.13;;;-8.30;99.90;;;;;;5078317;28;20429;-67
2022/12/16 03:28:23;;;;;;;4.13;1.60;;;-8.30;99.90;;;;;;5069498;28;20384;-67
2022/12/16 03:30:58;;;;;;;10.05;2.47;;;-8.20;99.90;;;;;;5070570;28;20032;-69
2022/12/16 03:33:28;;;;;;;5.88;1.83;;;-8.30;99.90;;;;;;5072243;28;20036;-68
2022/12/16 03:36:02;;;;;;;3.50;1.80;;;-8.30;99.90;;;;;;5072535;28;20462;-68
2022/12/16 03:38:31;;;;;;;5.32;1.90;;;-8.30;99.90;;;;;;5081579;28;20048;-66
2022/12/16 03:40:58;;;;;;;13.85;3.60;;;-8.30;99.90;;;;;;5074811;28;20028;-66
2022/12/16 03:43:24;;;;;;;6.82;2.13;;;-8.30;99.90;;;;;;5082288;28;20051;-66
2022/12/16 03:45:53;;;;;;;8.20;2.28;;;-8.30;99.90;;;;;;5083596;28;20043;-66
2022/12/16 03:48:23;;;;;;;6.80;1.60;;;-8.30;99.90;;;;;;5077656;28;20045;-66
2022/12/16 03:50:50;;;;;;;8.05;3.00;;;-8.30;99.90;;;;;;5084409;28;20067;-67
2022/12/16 03:53:15;;;;;;;7.45;2.38;;;-8.30;99.90;;;;;;5091625;28;20040;-66
2022/12/16 03:55:41;;;;;;;6.63;3.20;;;-8.30;99.90;;;;;;5093319;28;20044;-67
2022/12/16 03:58:07;;;;;;;9.65;4.40;;;-8.30;99.90;;;;;;5081383;28;20036;-67
2022/12/16 04:00:33;;;;;;;15.15;5.10;;;-8.30;99.90;;;;;;5090267;28;20063;-66
2022/12/16 04:02:58;;;;;;;12.02;4.82;;;-8.30;99.90;;;;;;5093509;28;20039;-66
2022/12/16 04:05:24;;;;;;;9.00;2.80;;;-8.40;99.90;;;;;;5080558;28;20566;-66
2022/12/16 04:07:49;;;;;;;9.68;3.50;;;-8.30;99.90;;;;;;5090696;28;20632;-66
2022/12/16 04:10:15;;;;;;;22.33;8.38;;;-8.30;99.90;;;;;;5085898;28;20033;-66
2022/12/16 04:29:26;;;;;;;16.98;4.45;;;-8.30;99.90;;;;;;5090473;28;20516;-67
2022/12/16 04:31:52;;;;;;;6.50;2.67;;;-8.40;99.90;;;;;;5086298;28;20042;-66
2022/12/16 04:34:28;;;;;;;7.50;2.63;;;-8.40;99.90;;;;;;5069803;28;20044;-65
